createdAt,value
2022-10-10T00:01:02.662Z,100648.78
2022-10-10T00:03:30.340Z,100656.94
2022-10-10T00:05:58.126Z,100654.41
2022-10-10T00:08:27.269Z,100645.28
2022-10-10T00:10:55.032Z,100649.97
2022-10-10T00:13:22.874Z,100648.13
2022-10-10T00:15:50.623Z,100654.78
2022-10-10T00:18:18.402Z,100653.41
2022-10-10T00:20:46.157Z,100658.63
2022-10-10T00:23:13.804Z,100660.88
2022-10-10T00:25:42.967Z,100656.91
2022-10-10T00:28:10.637Z,100644.41
2022-10-10T00:30:38.389Z,100650.19
2022-10-10T00:33:06.595Z,100659.44
2022-10-10T00:35:34.337Z,100655.41
2022-10-10T00:38:02.152Z,100655.50
2022-10-10T00:40:29.952Z,100650.63
2022-10-10T00:42:58.969Z,100651.47
2022-10-10T00:45:32.172Z,100652.97
2022-10-10T00:48:04.059Z,100654.91
2022-10-10T00:50:34.567Z,100657.91
2022-10-10T00:53:04.413Z,100658.59
2022-10-10T00:55:32.205Z,100657.97
2022-10-10T00:58:01.369Z,100665.72
2022-10-10T01:00:29.134Z,100661.31
2022-10-10T01:02:56.859Z,100665.56
2022-10-10T01:05:25.311Z,100661.72
2022-10-10T01:07:53.383Z,100666.41
2022-10-10T01:10:23.176Z,100666.63
2022-10-10T01:13:05.234Z,100671.78
2022-10-10T01:15:46.713Z,100673.53
2022-10-10T01:18:20.929Z,100671.03
2022-10-10T01:20:59.482Z,100660.28
2022-10-10T01:24:05.437Z,100659.81
2022-10-10T01:26:56.147Z,100668.81
2022-10-10T01:29:31.198Z,100656.84
2022-10-10T01:32:06.699Z,100664.38
2022-10-10T01:34:44.982Z,100665.31
2022-10-10T01:37:19.685Z,100667.94
2022-10-10T01:39:55.817Z,100668.31
2022-10-10T01:42:29.575Z,100664.69
2022-10-10T01:44:59.213Z,100666.19
2022-10-10T01:47:26.946Z,100670.41
2022-10-10T01:50:00.394Z,100670.59
2022-10-10T01:52:41.213Z,100676.31
2022-10-10T01:55:30.186Z,100676.25
2022-10-10T01:58:11.547Z,100677.56
2022-10-10T02:00:49.521Z,100674.88
2022-10-10T02:03:23.130Z,100689.59
2022-10-10T02:05:58.049Z,100684.31
2022-10-10T02:08:32.877Z,100687.91
2022-10-10T02:11:03.830Z,100693.47
2022-10-10T02:13:37.471Z,100687.84
2022-10-10T02:16:10.883Z,100688.84
2022-10-10T02:18:38.649Z,100688.94
2022-10-10T02:21:09.631Z,100683.91
2022-10-10T02:23:38.098Z,100684.31
2022-10-10T02:26:05.958Z,100683.25
2022-10-10T02:28:41.062Z,100670.56
2022-10-10T02:31:16.365Z,100670.91
2022-10-10T02:33:49.393Z,100673.81
2022-10-10T02:36:19.923Z,100680.03
2022-10-10T02:38:48.997Z,100675.19
2022-10-10T02:41:19.557Z,100673.81
2022-10-10T02:43:48.249Z,100674.25
2022-10-10T02:46:17.901Z,100680.34
2022-10-10T02:48:46.089Z,100688.75
2022-10-10T02:51:16.114Z,100682.81
2022-10-10T02:53:44.158Z,100684.75
2022-10-10T02:56:12.157Z,100696.81
2022-10-10T02:58:39.913Z,100688.66
2022-10-10T03:01:07.713Z,100697.47
2022-10-10T03:03:37.198Z,100703.47
2022-10-10T03:06:05.215Z,100714.69
2022-10-10T03:08:32.890Z,100707.88
2022-10-10T03:11:02.705Z,100704.34
2022-10-10T03:13:30.425Z,100704.56
2022-10-10T03:15:58.325Z,100702.75
2022-10-10T03:18:26.173Z,100704.97
2022-10-10T03:20:57.162Z,100689.94
2022-10-10T03:23:25.906Z,100688.31
2022-10-10T03:25:54.092Z,100685.84
2022-10-10T03:28:22.242Z,100684.75
2022-10-10T03:30:50.223Z,100683.38
2022-10-10T03:33:17.986Z,100683.16
2022-10-10T03:35:45.719Z,100699.38
2022-10-10T03:38:15.639Z,100701.88
2022-10-10T03:40:44.671Z,100695.50
2022-10-10T03:43:13.884Z,100693.38
2022-10-10T03:45:43.301Z,100696.06
2022-10-10T03:48:11.501Z,100693.56
2022-10-10T03:50:39.612Z,100691.44
2022-10-10T03:53:07.609Z,100696.69
2022-10-10T03:55:36.823Z,100710.47
2022-10-10T03:58:04.489Z,100711.78
2022-10-10T04:00:32.260Z,100720.91
2022-10-10T04:03:00.763Z,100735.53
2022-10-10T04:05:28.576Z,100746.16
2022-10-10T04:07:56.258Z,100751.66
2022-10-10T04:10:23.974Z,100741.28
2022-10-10T04:12:53.360Z,100738.66
2022-10-10T04:15:21.274Z,100750.53
2022-10-10T04:17:49.430Z,100751.28
2022-10-10T04:20:17.999Z,100758.06
2022-10-10T04:22:45.787Z,100761.19
2022-10-10T04:25:13.588Z,100763.47
2022-10-10T04:27:41.245Z,100754.34
2022-10-10T04:30:11.599Z,100752.50
2022-10-10T04:32:40.046Z,100748.00
2022-10-10T04:35:08.295Z,100752.50
2022-10-10T04:37:36.827Z,100753.28
2022-10-10T04:40:05.146Z,100743.94
2022-10-10T04:42:32.894Z,100742.00
2022-10-10T04:45:00.649Z,100742.19
2022-10-10T04:47:29.719Z,100739.06
2022-10-10T04:49:57.442Z,100736.81
2022-10-10T04:52:25.122Z,100749.31
2022-10-10T04:54:52.918Z,100747.56
2022-10-10T04:57:20.593Z,100752.00
2022-10-10T04:59:48.377Z,100750.72
2022-10-10T05:02:16.080Z,100752.75
2022-10-10T05:04:45.166Z,100756.28
2022-10-10T05:07:13.017Z,100760.06
2022-10-10T05:09:40.737Z,100763.59
2022-10-10T05:12:08.406Z,100770.81
2022-10-10T05:14:36.141Z,100765.34
2022-10-10T05:17:03.903Z,100772.09
2022-10-10T05:19:31.571Z,100762.31
2022-10-10T05:22:00.728Z,100766.84
2022-10-10T05:24:28.640Z,100773.94
2022-10-10T05:26:56.309Z,100788.03
2022-10-10T05:29:24.235Z,100788.13
2022-10-10T05:31:52.015Z,100787.09
2022-10-10T05:34:19.753Z,100790.91
2022-10-10T05:36:47.478Z,100796.88
2022-10-10T05:39:16.638Z,100805.69
2022-10-10T05:41:44.399Z,100807.19
2022-10-10T05:44:12.137Z,100815.59
2022-10-10T05:46:39.873Z,100817.31
2022-10-10T05:49:07.949Z,100817.53
2022-10-10T05:51:35.707Z,100830.03
2022-10-10T05:54:05.113Z,100832.38
2022-10-10T05:56:34.264Z,100830.56
2022-10-10T05:59:01.946Z,100828.50
2022-10-10T06:01:29.709Z,100831.31
2022-10-10T06:03:57.400Z,100832.91
2022-10-10T06:06:27.091Z,100837.56
2022-10-10T06:08:55.778Z,100835.50
2022-10-10T06:11:25.021Z,100840.88
2022-10-10T06:13:54.326Z,100837.56
2022-10-10T06:16:22.465Z,100840.63
2022-10-10T06:18:50.566Z,100853.47
2022-10-10T06:21:18.807Z,100853.47
2022-10-10T06:23:47.209Z,100851.97
2022-10-10T06:26:15.286Z,100854.25
2022-10-10T06:28:43.100Z,100852.06
2022-10-10T06:31:14.497Z,100849.31
2022-10-10T06:33:45.326Z,100858.03
2022-10-10T06:36:15.225Z,100860.03
2022-10-10T06:38:44.818Z,100860.63
2022-10-10T06:41:13.482Z,100866.00
2022-10-10T06:43:42.306Z,100863.31
2022-10-10T06:46:11.642Z,100866.44
2022-10-10T06:48:40.763Z,100865.59
2022-10-10T06:51:10.458Z,100881.50
2022-10-10T06:53:38.365Z,100891.84
2022-10-10T06:56:06.313Z,100899.59
2022-10-10T06:58:34.258Z,100910.91
2022-10-10T07:01:05.412Z,100907.78
2022-10-10T07:03:33.564Z,100915.84
2022-10-10T07:06:03.993Z,100919.31
2022-10-10T07:08:31.963Z,100935.34
2022-10-10T07:10:59.739Z,100937.94
2022-10-10T07:13:27.449Z,100936.09
2022-10-10T07:15:55.317Z,100932.97
2022-10-10T07:18:23.099Z,100938.66
2022-10-10T07:20:50.830Z,100935.94
2022-10-10T07:23:20.283Z,100943.59
2022-10-10T07:25:47.997Z,100945.63
2022-10-10T07:28:15.864Z,100948.13
2022-10-10T07:30:45.126Z,100944.59
2022-10-10T07:33:13.511Z,100954.28
2022-10-10T07:35:41.578Z,100962.22
2022-10-10T07:38:11.768Z,100954.75
2022-10-10T07:40:42.008Z,100963.97
2022-10-10T07:43:09.708Z,100963.84
2022-10-10T07:45:37.781Z,100979.13
2022-10-10T07:48:06.481Z,100972.41
2022-10-10T07:50:34.240Z,100983.06
2022-10-10T07:53:02.078Z,100995.03
2022-10-10T07:55:29.791Z,100993.84
2022-10-10T07:58:00.199Z,100996.00
2022-10-10T08:00:28.109Z,101003.88
2022-10-10T08:02:55.817Z,100997.38
2022-10-10T08:05:23.614Z,101005.03
2022-10-10T08:07:51.570Z,101016.16
2022-10-10T08:10:19.597Z,101017.41
2022-10-10T08:12:47.319Z,101019.44
2022-10-10T08:15:16.502Z,101027.59
2022-10-10T08:17:44.191Z,101029.09
2022-10-10T08:20:11.974Z,101029.69
2022-10-10T08:22:39.969Z,101031.16
2022-10-10T08:25:08.512Z,101034.66
2022-10-10T08:27:36.256Z,101039.78
2022-10-10T08:30:04.773Z,101041.97
2022-10-10T08:32:33.960Z,101047.78
2022-10-10T08:35:01.659Z,101055.88
2022-10-10T08:37:35.145Z,101060.28
2022-10-10T08:40:05.952Z,101058.97
2022-10-10T08:42:42.016Z,101063.34
2022-10-10T08:45:17.392Z,101059.66
2022-10-10T08:47:51.971Z,101068.72
2022-10-10T08:50:23.077Z,101068.63
2022-10-10T08:52:56.072Z,101065.88
2022-10-10T08:55:30.937Z,101066.25
2022-10-10T08:58:04.820Z,101080.38
2022-10-10T09:00:38.827Z,101090.72
2022-10-10T09:03:20.146Z,101093.84
2022-10-10T09:05:59.649Z,101094.34
2022-10-10T09:08:42.389Z,101106.66
2022-10-10T09:11:21.305Z,101102.50
2022-10-10T09:14:00.498Z,101100.88
2022-10-10T09:16:37.401Z,101109.41
2022-10-10T09:19:24.049Z,101113.28
2022-10-10T09:21:57.694Z,101120.06
2022-10-10T09:24:28.302Z,101120.66
2022-10-10T09:27:00.226Z,101118.84
2022-10-10T09:29:33.969Z,101128.31
2022-10-10T09:32:10.573Z,101133.50
2022-10-10T09:34:42.726Z,101140.94
2022-10-10T09:37:24.396Z,101145.78
2022-10-10T09:40:02.990Z,101150.72
2022-10-10T09:42:36.608Z,101159.31
2022-10-10T09:45:14.030Z,101153.53
2022-10-10T09:47:42.169Z,101151.31
2022-10-10T09:50:15.870Z,101158.59
2022-10-10T09:52:45.221Z,101155.72
2022-10-10T09:55:28.099Z,101151.03
2022-10-10T09:57:58.713Z,101156.34
2022-10-10T10:00:33.840Z,101161.31
2022-10-10T10:03:07.344Z,101161.75
2022-10-10T10:05:36.713Z,101158.31
2022-10-10T10:08:04.658Z,101158.81
2022-10-10T10:10:36.721Z,101160.75
2022-10-10T10:13:13.221Z,101157.53
2022-10-10T10:15:48.459Z,101164.34
2022-10-10T10:18:25.023Z,101171.06
2022-10-10T10:20:56.742Z,101174.94
2022-10-10T10:23:27.614Z,101176.75
2022-10-10T10:26:00.220Z,101175.41
2022-10-10T10:28:28.577Z,101173.69
2022-10-10T10:30:59.483Z,101180.31
2022-10-10T10:33:39.382Z,101181.69
2022-10-10T10:36:21.063Z,101180.50
2022-10-10T10:38:53.809Z,101184.63
2022-10-10T10:41:32.514Z,101188.19
2022-10-10T10:44:32.041Z,101193.91
2022-10-10T10:47:12.208Z,101197.34
2022-10-10T10:49:51.511Z,101205.28
2022-10-10T10:52:55.582Z,101203.28
2022-10-10T10:55:33.230Z,101216.16
2022-10-10T11:01:44.821Z,101226.28
2022-10-10T11:05:17.847Z,101228.25
2022-10-10T11:07:21.105Z,101229.59
2022-10-10T11:09:57.843Z,101233.31
2022-10-10T11:12:39.445Z,101233.75
2022-10-10T11:15:14.194Z,101246.81
2022-10-10T11:17:46.418Z,101247.16
2022-10-10T11:20:25.130Z,101253.81
2022-10-10T11:22:56.794Z,101257.78
2022-10-10T11:25:30.730Z,101254.78
2022-10-10T11:28:03.829Z,101254.28
2022-10-10T11:30:34.582Z,101256.94
2022-10-10T11:33:11.403Z,101259.34
2022-10-10T11:35:44.111Z,101265.88
2022-10-10T11:38:18.079Z,101271.44
2022-10-10T11:40:53.843Z,101271.50
2022-10-10T11:43:31.179Z,101268.78
2022-10-10T11:46:07.737Z,101272.50
2022-10-10T11:48:47.125Z,101272.53
2022-10-10T11:51:25.743Z,101282.81
2022-10-10T11:53:59.614Z,101283.31
2022-10-10T11:56:33.583Z,101285.44
2022-10-10T11:59:07.098Z,101290.50
2022-10-10T12:01:39.151Z,101285.06
2022-10-10T12:04:06.811Z,101285.84
2022-10-10T12:06:40.381Z,101288.06
2022-10-10T12:09:14.718Z,101285.34
2022-10-10T12:11:47.038Z,101282.63
2022-10-10T12:14:17.641Z,101273.06
2022-10-10T12:16:46.045Z,101268.63
2022-10-10T12:19:19.943Z,101279.88
2022-10-10T12:21:57.239Z,101282.19
2022-10-10T12:24:26.549Z,101283.38
2022-10-10T12:27:30.368Z,101288.31
2022-10-10T12:30:16.624Z,101287.56
2022-10-10T12:32:44.974Z,101282.84
2022-10-10T12:35:34.536Z,101287.75
2022-10-10T12:38:23.980Z,101298.63
2022-10-10T12:41:12.565Z,101299.59
2022-10-10T12:43:49.521Z,101300.34
2022-10-10T12:46:30.065Z,101293.38
2022-10-10T12:49:04.121Z,101299.16
2022-10-10T12:51:34.965Z,101300.38
2022-10-10T12:54:06.137Z,101299.13
2022-10-10T12:56:40.708Z,101302.69
2022-10-10T12:59:19.114Z,101298.13
2022-10-10T13:01:53.243Z,101302.16
2022-10-10T13:04:21.538Z,101301.25
2022-10-10T13:06:53.437Z,101299.38
2022-10-10T13:09:23.838Z,101304.06
2022-10-10T13:11:57.183Z,101300.09
2022-10-10T13:14:28.242Z,101312.81
2022-10-10T13:16:55.969Z,101315.38
2022-10-10T13:19:25.120Z,101317.97
2022-10-10T13:21:55.710Z,101315.50
2022-10-10T13:24:29.458Z,101318.50
2022-10-10T13:26:57.446Z,101327.00
2022-10-10T13:29:31.289Z,101325.72
2022-10-10T13:32:01.934Z,101332.56
2022-10-10T13:34:33.076Z,101335.13
2022-10-10T13:37:02.882Z,101334.09
2022-10-10T13:39:33.674Z,101330.97
2022-10-10T13:42:01.489Z,101327.44
2022-10-10T13:44:35.093Z,101341.19
2022-10-10T13:47:35.990Z,101343.72
2022-10-10T13:50:03.840Z,101339.63
2022-10-10T13:52:31.539Z,101342.63
2022-10-10T13:55:15.303Z,101349.94
2022-10-10T13:57:43.245Z,101342.38
2022-10-10T14:00:19.978Z,101352.84
2022-10-10T14:02:48.265Z,101346.94
2022-10-10T14:05:20.589Z,101346.41
2022-10-10T14:07:50.742Z,101347.13
2022-10-10T14:10:22.497Z,101352.84
2022-10-10T14:12:53.245Z,101357.88
2022-10-10T14:15:45.401Z,101360.28
2022-10-10T14:18:17.276Z,101349.75
2022-10-10T14:20:45.224Z,101362.75
2022-10-10T14:23:13.457Z,101363.28
2022-10-10T14:25:42.534Z,101359.66
2022-10-10T14:28:15.896Z,101366.53
2022-10-10T14:30:45.302Z,101364.38
2022-10-10T14:33:13.917Z,101369.44
2022-10-10T14:35:42.389Z,101368.50
2022-10-10T14:38:11.536Z,101368.41
2022-10-10T14:40:39.279Z,101382.16
2022-10-10T14:43:06.950Z,101380.88
2022-10-10T14:45:35.101Z,101375.94
2022-10-10T14:48:04.494Z,101379.63
2022-10-10T14:50:34.409Z,101377.38
2022-10-10T14:53:02.405Z,101385.03
2022-10-10T14:55:30.124Z,101387.09
2022-10-10T14:57:57.805Z,101393.50
2022-10-10T15:00:27.418Z,101386.66
2022-10-10T15:02:55.441Z,101396.47
2022-10-10T15:05:24.624Z,101394.53
2022-10-10T15:07:53.794Z,101397.41
2022-10-10T15:10:37.121Z,101398.44
2022-10-10T15:13:04.952Z,101406.56
2022-10-10T15:15:32.746Z,101404.19
2022-10-10T15:18:00.988Z,101405.16
2022-10-10T15:20:31.731Z,101408.56
2022-10-10T15:22:59.948Z,101414.19
2022-10-10T15:25:33.413Z,101414.72
2022-10-10T15:28:03.209Z,101410.41
2022-10-10T15:30:31.500Z,101410.75
2022-10-10T15:32:59.195Z,101420.19
2022-10-10T15:35:40.010Z,101417.56
2022-10-10T15:38:16.670Z,101415.13
2022-10-10T15:40:44.402Z,101413.16
2022-10-10T15:43:12.078Z,101417.66
2022-10-10T15:45:55.427Z,101410.47
2022-10-10T15:48:24.121Z,101421.78
2022-10-10T15:50:52.372Z,101419.53
2022-10-10T15:53:21.439Z,101418.69
2022-10-10T15:55:49.329Z,101419.13
2022-10-10T15:58:17.274Z,101424.16
2022-10-10T16:00:45.779Z,101424.00
2022-10-10T16:03:13.745Z,101425.38
2022-10-10T16:05:43.006Z,101431.41
2022-10-10T16:08:12.046Z,101422.75
2022-10-10T16:10:43.069Z,101439.19
2022-10-10T16:13:11.479Z,101438.81
2022-10-10T16:15:39.229Z,101441.28
2022-10-10T16:18:07.016Z,101442.34
2022-10-10T16:20:34.751Z,101440.19
2022-10-10T16:23:02.431Z,101441.69
2022-10-10T16:25:30.198Z,101447.34
2022-10-10T16:27:59.450Z,101441.94
2022-10-10T16:30:27.180Z,101448.84
2022-10-10T16:32:54.842Z,101454.66
2022-10-10T16:35:22.736Z,101460.09
2022-10-10T16:37:50.421Z,101461.19
2022-10-10T16:40:18.719Z,101463.34
2022-10-10T16:42:46.474Z,101468.97
2022-10-10T16:45:15.645Z,101472.44
2022-10-10T17:00:38.458Z,101490.34
2022-10-10T17:03:06.152Z,101492.72
2022-10-10T17:05:33.902Z,101485.56
2022-10-10T17:08:01.579Z,101486.66
2022-10-10T17:10:29.590Z,101495.16
2022-10-10T17:12:57.274Z,101502.03
2022-10-10T17:15:25.004Z,101503.03
2022-10-10T17:17:54.102Z,101499.25
2022-10-10T17:20:21.846Z,101510.38
2022-10-10T17:22:49.560Z,101519.25
2022-10-10T17:25:17.456Z,101520.88
2022-10-10T17:27:45.135Z,101527.56
2022-10-10T17:30:14.243Z,101525.00
2022-10-10T17:32:43.127Z,101527.78
2022-10-10T17:35:12.936Z,101528.22
2022-10-10T17:37:40.629Z,101533.63
2022-10-10T17:40:10.102Z,101542.91
2022-10-10T17:42:37.802Z,101548.94
2022-10-10T17:45:05.957Z,101557.66
2022-10-10T17:47:34.785Z,101557.47
2022-10-10T17:50:02.597Z,101560.97
2022-10-10T17:52:31.691Z,101563.69
2022-10-10T17:54:59.353Z,101565.22
2022-10-10T17:57:27.434Z,101573.13
2022-10-10T17:59:55.157Z,101576.28
2022-10-10T18:02:22.828Z,101581.44
2022-10-10T18:04:50.561Z,101589.94
2022-10-10T18:07:18.833Z,101593.22
2022-10-10T18:09:51.949Z,101599.13
2022-10-10T18:12:19.588Z,101605.94
2022-10-10T18:14:47.457Z,101614.91
2022-10-10T18:17:15.238Z,101611.13
2022-10-10T18:19:43.272Z,101612.81
2022-10-10T18:22:10.939Z,101612.66
2022-10-10T18:24:38.694Z,101626.72
2022-10-10T18:27:08.697Z,101623.44
2022-10-10T18:29:37.299Z,101630.97
2022-10-10T18:32:05.486Z,101630.38
2022-10-10T18:34:33.294Z,101633.53
2022-10-10T18:37:00.971Z,101635.94
2022-10-10T18:39:33.060Z,101642.47
2022-10-10T18:42:01.064Z,101642.53
2022-10-10T18:44:30.551Z,101641.97
2022-10-10T18:46:58.315Z,101638.31
2022-10-10T18:49:26.438Z,101641.63
2022-10-10T18:51:54.282Z,101639.09
2022-10-10T18:54:22.758Z,101645.53
2022-10-10T18:56:50.462Z,101644.09
2022-10-10T18:59:21.861Z,101652.19
2022-10-10T19:01:52.470Z,101655.66
2022-10-10T19:04:21.603Z,101661.06
2022-10-10T19:06:53.177Z,101665.69
2022-10-10T19:09:24.629Z,101664.53
2022-10-10T19:11:53.342Z,101664.78
2022-10-10T19:14:21.596Z,101671.28
2022-10-10T19:16:50.650Z,101669.16
2022-10-10T19:19:20.306Z,101673.28
2022-10-10T19:21:49.572Z,101678.03
2022-10-10T19:24:20.814Z,101680.47
2022-10-10T19:26:53.276Z,101680.91
2022-10-10T19:29:22.003Z,101688.09
2022-10-10T19:31:51.145Z,101691.09
2022-10-10T19:34:18.911Z,101692.34
2022-10-10T19:36:46.844Z,101705.75
2022-10-10T19:39:14.576Z,101706.13
2022-10-10T19:41:42.317Z,101704.47
2022-10-10T19:44:10.119Z,101707.03
2022-10-10T19:46:37.940Z,101709.66
2022-10-10T19:49:07.267Z,101714.53
2022-10-10T19:51:35.055Z,101720.13
2022-10-10T19:54:02.719Z,101732.13
2022-10-10T19:56:30.462Z,101730.91
2022-10-10T19:59:00.528Z,101738.69
2022-10-10T20:01:30.450Z,101738.78
2022-10-10T20:03:59.021Z,101743.81
2022-10-10T20:06:28.775Z,101742.47
2022-10-10T20:08:56.881Z,101743.06
2022-10-10T20:11:26.226Z,101755.44
2022-10-10T20:13:55.356Z,101757.28
2022-10-10T20:16:24.016Z,101753.31
2022-10-10T20:18:51.826Z,101760.66
2022-10-10T20:21:22.001Z,101764.88
2022-10-10T20:23:51.385Z,101758.97
2022-10-10T20:26:21.911Z,101774.94
2022-10-10T20:28:50.578Z,101772.78
2022-10-10T20:31:20.147Z,101776.50
2022-10-10T20:33:48.607Z,101784.50
2022-10-10T20:36:17.021Z,101778.69
2022-10-10T20:38:45.693Z,101781.44
2022-10-10T20:41:15.202Z,101790.25
2022-10-10T20:43:43.069Z,101787.81
2022-10-10T20:46:12.305Z,101790.75
2022-10-10T20:48:40.604Z,101791.72
2022-10-10T20:51:10.090Z,101794.50
2022-10-10T20:53:39.404Z,101801.44
2022-10-10T20:56:09.423Z,101805.63
2022-10-10T20:58:39.378Z,101814.75
2022-10-10T21:01:09.593Z,101815.88
2022-10-10T21:03:37.894Z,101821.25
2022-10-10T21:06:07.719Z,101819.78
2022-10-10T21:08:35.791Z,101821.69
2022-10-10T21:11:06.248Z,101816.66
2022-10-10T21:13:34.922Z,101825.19
2022-10-10T21:16:07.529Z,101813.19
2022-10-10T21:18:35.568Z,101822.41
2022-10-10T21:21:05.241Z,101831.34
2022-10-10T21:23:36.589Z,101831.06
2022-10-10T21:26:06.360Z,101834.44
2022-10-10T21:28:34.679Z,101831.53
2022-10-10T21:31:04.289Z,101844.09
2022-10-10T21:33:32.739Z,101835.31
2022-10-10T21:36:00.518Z,101836.47
2022-10-10T21:38:28.351Z,101846.63
2022-10-10T21:40:56.018Z,101845.13
2022-10-10T21:43:23.787Z,101836.63
2022-10-10T21:45:51.526Z,101844.31
2022-10-10T21:48:20.545Z,101840.78
2022-10-10T21:50:48.274Z,101851.91
2022-10-10T21:53:15.934Z,101848.78
2022-10-10T21:55:43.834Z,101851.91
2022-10-10T21:58:11.501Z,101852.63
2022-10-10T22:00:39.329Z,101860.97
2022-10-10T22:03:07.104Z,101858.22
2022-10-10T22:05:36.770Z,101862.03
2022-10-10T22:08:04.998Z,101862.34
2022-10-10T22:10:34.172Z,101868.66
2022-10-10T22:13:02.720Z,101861.16
2022-10-10T22:15:31.142Z,101870.00
2022-10-10T22:17:59.045Z,101877.09
2022-10-10T22:20:26.834Z,101873.31
2022-10-10T22:22:55.905Z,101868.13
2022-10-10T22:25:23.642Z,101872.72
2022-10-10T22:27:54.007Z,101871.66
2022-10-10T22:30:24.826Z,101872.06
2022-10-10T22:32:52.791Z,101875.88
2022-10-10T22:35:20.541Z,101875.00
2022-10-10T22:37:48.206Z,101877.13
2022-10-10T22:40:17.641Z,101873.00
2022-10-10T22:42:45.335Z,101872.41
2022-10-10T22:45:13.079Z,101874.91
2022-10-10T22:47:40.714Z,101867.00
2022-10-10T22:50:09.261Z,101872.34
2022-10-10T22:52:36.953Z,101872.84
2022-10-10T22:55:05.183Z,101869.81
2022-10-10T22:57:34.922Z,101865.09
2022-10-10T23:00:03.223Z,101869.31
2022-10-10T23:02:30.943Z,101872.44
2022-10-10T23:04:59.423Z,101877.72
2022-10-10T23:07:27.565Z,101870.03
2022-10-10T23:09:55.289Z,101875.91
2022-10-10T23:12:22.993Z,101872.06
2022-10-10T23:14:52.120Z,101878.53
2022-10-10T23:17:19.781Z,101876.28
2022-10-10T23:19:47.508Z,101876.72
2022-10-10T23:22:15.215Z,101877.97
2022-10-10T23:24:43.037Z,101872.22
2022-10-10T23:27:10.766Z,101868.72
2022-10-10T23:29:38.557Z,101862.28
2022-10-10T23:32:07.657Z,101871.41
2022-10-10T23:34:35.501Z,101875.41
2022-10-10T23:37:03.209Z,101871.63
2022-10-10T23:39:30.996Z,101874.88
2022-10-10T23:41:58.641Z,101874.53
2022-10-10T23:44:26.522Z,101874.25
2022-10-10T23:46:54.218Z,101874.97
2022-10-10T23:49:23.301Z,101865.59
2022-10-10T23:51:50.986Z,101860.31
2022-10-10T23:54:18.798Z,101866.34
2022-10-10T23:56:46.486Z,101858.44
2022-10-10T23:59:14.210Z,101851.91
